sensor_id;sensor_type;location;lat;lon;timestamp;temperature;humidity
13203;DHT22;6666;51.626;7.530;2024-01-16T00:02:14;2.00;99.90
13203;DHT22;6666;51.626;7.530;2024-01-16T00:04:42;1.90;99.90
13203;DHT22;6666;51.626;7.530;2024-01-16T00:07:10;2.00;99.90
13203;DHT22;6666;51.626;7.530;2024-01-16T00:09:38;2.10;99.90
13203;DHT22;6666;51.626;7.530;2024-01-16T00:12:07;2.00;99.90
13203;DHT22;6666;51.626;7.530;2024-01-16T00:14:36;2.00;99.90
13203;DHT22;6666;51.626;7.530;2024-01-16T00:17:05;2.10;99.90
13203;DHT22;6666;51.626;7.530;2024-01-16T00:19:34;2.10;99.90
13203;DHT22;6666;51.626;7.530;2024-01-16T00:22:03;2.00;99.90
13203;DHT22;6666;51.626;7.530;2024-01-16T00:24:31;2.10;99.90
13203;DHT22;6666;51.626;7.530;2024-01-16T00:26:59;2.00;99.90
13203;DHT22;6666;51.626;7.530;2024-01-16T00:29:28;2.10;99.90
13203;DHT22;6666;51.626;7.530;2024-01-16T00:31:57;2.10;99.90
13203;DHT22;6666;51.626;7.530;2024-01-16T00:34:25;2.10;99.90
13203;DHT22;6666;51.626;7.530;2024-01-16T00:36:55;2.00;99.90
13203;DHT22;6666;51.626;7.530;2024-01-16T00:39:23;2.00;99.90
13203;DHT22;6666;51.626;7.530;2024-01-16T00:41:51;2.10;99.90
13203;DHT22;6666;51.626;7.530;2024-01-16T00:44:19;2.00;99.90
13203;DHT22;6666;51.626;7.530;2024-01-16T00:46:47;2.00;99.90
13203;DHT22;6666;51.626;7.530;2024-01-16T00:49:15;2.00;99.90
13203;DHT22;6666;51.626;7.530;2024-01-16T00:51:47;2.00;99.90
13203;DHT22;6666;51.626;7.530;2024-01-16T00:54:16;2.00;99.90
13203;DHT22;6666;51.626;7.530;2024-01-16T00:56:44;2.10;99.90
13203;DHT22;6666;51.626;7.530;2024-01-16T00:59:13;2.00;99.90
13203;DHT22;6666;51.626;7.530;2024-01-16T01:01:41;1.90;99.90
13203;DHT22;6666;51.626;7.530;2024-01-16T01:04:09;2.00;99.90
13203;DHT22;6666;51.626;7.530;2024-01-16T01:06:37;1.90;99.90
13203;DHT22;6666;51.626;7.530;2024-01-16T01:09:05;2.00;99.90
13203;DHT22;6666;51.626;7.530;2024-01-16T01:11:34;1.90;99.90
13203;DHT22;6666;51.626;7.530;2024-01-16T01:14:03;1.90;99.90
13203;DHT22;6666;51.626;7.530;2024-01-16T01:16:31;1.90;99.90
13203;DHT22;6666;51.626;7.530;2024-01-16T01:18:59;1.80;99.90
13203;DHT22;6666;51.626;7.530;2024-01-16T01:21:27;1.80;99.90
13203;DHT22;6666;51.626;7.530;2024-01-16T01:23:55;1.80;99.90
13203;DHT22;6666;51.626;7.530;2024-01-16T01:26:23;1.70;99.90
13203;DHT22;6666;51.626;7.530;2024-01-16T01:28:53;1.70;99.90
13203;DHT22;6666;51.626;7.530;2024-01-16T01:31:21;1.70;99.90
13203;DHT22;6666;51.626;7.530;2024-01-16T01:33:49;1.60;99.90
13203;DHT22;6666;51.626;7.530;2024-01-16T01:36:17;1.70;99.90
13203;DHT22;6666;51.626;7.530;2024-01-16T01:38:45;1.70;99.90
13203;DHT22;6666;51.626;7.530;2024-01-16T01:41:13;1.70;99.90
13203;DHT22;6666;51.626;7.530;2024-01-16T01:43:41;1.60;99.90
13203;DHT22;6666;51.626;7.530;2024-01-16T01:46:13;1.60;99.90
13203;DHT22;6666;51.626;7.530;2024-01-16T01:48:42;1.60;99.90
13203;DHT22;6666;51.626;7.530;2024-01-16T01:51:12;1.70;99.90
13203;DHT22;6666;51.626;7.530;2024-01-16T01:53:42;1.70;99.90
13203;DHT22;6666;51.626;7.530;2024-01-16T01:56:13;1.60;99.90
13203;DHT22;6666;51.626;7.530;2024-01-16T01:58:44;1.60;99.90
13203;DHT22;6666;51.626;7.530;2024-01-16T02:01:16;1.70;99.90
13203;DHT22;6666;51.626;7.530;2024-01-16T02:03:46;1.50;99.90
13203;DHT22;6666;51.626;7.530;2024-01-16T02:06:14;1.50;99.90
13203;DHT22;6666;51.626;7.530;2024-01-16T02:08:44;1.60;99.90
13203;DHT22;6666;51.626;7.530;2024-01-16T02:11:13;1.60;99.90
13203;DHT22;6666;51.626;7.530;2024-01-16T02:13:41;1.70;99.90
13203;DHT22;6666;51.626;7.530;2024-01-16T02:16:19;1.60;99.90
13203;DHT22;6666;51.626;7.530;2024-01-16T02:18:48;1.70;99.90
13203;DHT22;6666;51.626;7.530;2024-01-16T02:21:18;1.60;99.90
13203;DHT22;6666;51.626;7.530;2024-01-16T02:23:49;1.60;99.90
13203;DHT22;6666;51.626;7.530;2024-01-16T02:26:18;1.70;99.90
13203;DHT22;6666;51.626;7.530;2024-01-16T02:28:46;1.60;99.90
13203;DHT22;6666;51.626;7.530;2024-01-16T02:31:14;1.60;99.90
13203;DHT22;6666;51.626;7.530;2024-01-16T02:33:44;1.70;99.90
13203;DHT22;6666;51.626;7.530;2024-01-16T02:36:13;1.70;99.90
13203;DHT22;6666;51.626;7.530;2024-01-16T02:38:41;1.70;99.90
13203;DHT22;6666;51.626;7.530;2024-01-16T02:41:15;1.70;99.90
13203;DHT22;6666;51.626;7.530;2024-01-16T02:43:44;1.70;99.90
13203;DHT22;6666;51.626;7.530;2024-01-16T02:46:12;1.70;99.90
13203;DHT22;6666;51.626;7.530;2024-01-16T02:48:40;1.60;99.90
13203;DHT22;6666;51.626;7.530;2024-01-16T02:51:09;1.70;99.90
13203;DHT22;6666;51.626;7.530;2024-01-16T02:53:37;1.60;99.90
13203;DHT22;6666;51.626;7.530;2024-01-16T02:56:05;1.80;99.90
13203;DHT22;6666;51.626;7.530;2024-01-16T02:58:35;1.80;99.90
13203;DHT22;6666;51.626;7.530;2024-01-16T03:01:03;1.70;99.90
13203;DHT22;6666;51.626;7.530;2024-01-16T03:03:31;1.70;99.90
13203;DHT22;6666;51.626;7.530;2024-01-16T03:05:59;1.80;99.90
13203;DHT22;6666;51.626;7.530;2024-01-16T03:08:28;1.70;99.90
13203;DHT22;6666;51.626;7.530;2024-01-16T03:10:56;1.70;99.90
13203;DHT22;6666;51.626;7.530;2024-01-16T03:13:24;1.60;99.90
13203;DHT22;6666;51.626;7.530;2024-01-16T03:15:54;1.60;99.90
13203;DHT22;6666;51.626;7.530;2024-01-16T03:18:24;1.60;99.90
13203;DHT22;6666;51.626;7.530;2024-01-16T03:20:53;1.50;99.90
13203;DHT22;6666;51.626;7.530;2024-01-16T03:23:21;1.60;99.90
13203;DHT22;6666;51.626;7.530;2024-01-16T03:25:49;1.50;99.90
13203;DHT22;6666;51.626;7.530;2024-01-16T03:28:17;1.50;99.90
13203;DHT22;6666;51.626;7.530;2024-01-16T03:30:45;1.40;99.90
13203;DHT22;6666;51.626;7.530;2024-01-16T03:33:15;1.40;99.90
13203;DHT22;6666;51.626;7.530;2024-01-16T03:35:44;1.40;99.90
13203;DHT22;6666;51.626;7.530;2024-01-16T03:38:12;1.50;99.90
13203;DHT22;6666;51.626;7.530;2024-01-16T03:40:41;1.40;99.90
13203;DHT22;6666;51.626;7.530;2024-01-16T03:43:09;1.40;99.90
13203;DHT22;6666;51.626;7.530;2024-01-16T03:45:37;1.50;99.90
13203;DHT22;6666;51.626;7.530;2024-01-16T03:48:05;1.50;99.90
13203;DHT22;6666;51.626;7.530;2024-01-16T03:50:35;1.50;99.90
13203;DHT22;6666;51.626;7.530;2024-01-16T03:53:03;1.60;99.90
13203;DHT22;6666;51.626;7.530;2024-01-16T03:55:32;1.60;99.90
13203;DHT22;6666;51.626;7.530;2024-01-16T03:58:00;1.60;99.90
13203;DHT22;6666;51.626;7.530;2024-01-16T04:00:28;1.80;99.90
13203;DHT22;6666;51.626;7.530;2024-01-16T04:02:56;1.80;99.90
13203;DHT22;6666;51.626;7.530;2024-01-16T04:05:24;1.80;99.90
13203;DHT22;6666;51.626;7.530;2024-01-16T04:07:54;1.80;99.90
13203;DHT22;6666;51.626;7.530;2024-01-16T04:10:22;1.90;99.90
13203;DHT22;6666;51.626;7.530;2024-01-16T04:12:50;1.90;99.90
13203;DHT22;6666;51.626;7.530;2024-01-16T04:15:18;1.90;99.90
13203;DHT22;6666;51.626;7.530;2024-01-16T04:17:49;1.90;99.90
13203;DHT22;6666;51.626;7.530;2024-01-16T04:20:17;1.90;99.90
13203;DHT22;6666;51.626;7.530;2024-01-16T04:22:46;1.90;99.90
13203;DHT22;6666;51.626;7.530;2024-01-16T04:25:16;1.80;99.90
13203;DHT22;6666;51.626;7.530;2024-01-16T04:27:44;1.80;99.90
13203;DHT22;6666;51.626;7.530;2024-01-16T04:30:13;1.80;99.90
13203;DHT22;6666;51.626;7.530;2024-01-16T04:32:41;2.00;99.90
13203;DHT22;6666;51.626;7.530;2024-01-16T04:35:10;1.90;99.90
13203;DHT22;6666;51.626;7.530;2024-01-16T04:37:38;1.90;99.90
13203;DHT22;6666;51.626;7.530;2024-01-16T04:40:06;2.00;99.90
13203;DHT22;6666;51.626;7.530;2024-01-16T04:42:36;1.90;99.90
13203;DHT22;6666;51.626;7.530;2024-01-16T04:45:05;1.90;99.90
13203;DHT22;6666;51.626;7.530;2024-01-16T04:47:33;1.90;99.90
13203;DHT22;6666;51.626;7.530;2024-01-16T04:50:02;1.90;99.90
13203;DHT22;6666;51.626;7.530;2024-01-16T04:52:30;1.90;99.90
13203;DHT22;6666;51.626;7.530;2024-01-16T04:54:58;2.00;99.90
13203;DHT22;6666;51.626;7.530;2024-01-16T04:57:27;1.90;99.90
13203;DHT22;6666;51.626;7.530;2024-01-16T04:59:57;1.90;99.90
13203;DHT22;6666;51.626;7.530;2024-01-16T05:02:25;1.90;99.90
13203;DHT22;6666;51.626;7.530;2024-01-16T05:04:54;1.90;99.90
13203;DHT22;6666;51.626;7.530;2024-01-16T05:07:23;2.00;99.90
13203;DHT22;6666;51.626;7.530;2024-01-16T05:09:51;2.00;99.90
13203;DHT22;6666;51.626;7.530;2024-01-16T05:12:20;2.00;99.90
13203;DHT22;6666;51.626;7.530;2024-01-16T05:14:49;2.00;99.90
13203;DHT22;6666;51.626;7.530;2024-01-16T05:17:19;2.00;99.90
13203;DHT22;6666;51.626;7.530;2024-01-16T05:19:47;2.00;99.90
13203;DHT22;6666;51.626;7.530;2024-01-16T05:22:15;2.00;99.90
13203;DHT22;6666;51.626;7.530;2024-01-16T05:24:43;2.00;99.90
13203;DHT22;6666;51.626;7.530;2024-01-16T05:27:11;2.00;99.90
13203;DHT22;6666;51.626;7.530;2024-01-16T05:29:40;2.00;99.90
13203;DHT22;6666;51.626;7.530;2024-01-16T05:32:11;1.90;99.90
13203;DHT22;6666;51.626;7.530;2024-01-16T05:34:41;2.00;99.90
13203;DHT22;6666;51.626;7.530;2024-01-16T05:37:09;2.00;99.90
13203;DHT22;6666;51.626;7.530;2024-01-16T05:39:37;1.90;99.90
13203;DHT22;6666;51.626;7.530;2024-01-16T05:42:05;1.90;99.90
13203;DHT22;6666;51.626;7.530;2024-01-16T05:44:34;1.90;99.90
13203;DHT22;6666;51.626;7.530;2024-01-16T05:47:02;1.90;99.90
13203;DHT22;6666;51.626;7.530;2024-01-16T05:49:31;1.90;99.90
13203;DHT22;6666;51.626;7.530;2024-01-16T05:52:00;1.90;99.90
13203;DHT22;6666;51.626;7.530;2024-01-16T05:54:29;2.00;99.90
13203;DHT22;6666;51.626;7.530;2024-01-16T05:56:57;1.90;99.90
13203;DHT22;6666;51.626;7.530;2024-01-16T05:59:25;2.00;99.90
13203;DHT22;6666;51.626;7.530;2024-01-16T06:01:53;2.00;99.90
13203;DHT22;6666;51.626;7.530;2024-01-16T06:04:21;2.00;99.90
13203;DHT22;6666;51.626;7.530;2024-01-16T06:06:49;2.00;99.90
13203;DHT22;6666;51.626;7.530;2024-01-16T06:09:19;2.00;99.90
13203;DHT22;6666;51.626;7.530;2024-01-16T06:11:47;2.00;99.90
13203;DHT22;6666;51.626;7.530;2024-01-16T06:14:15;2.00;99.90
13203;DHT22;6666;51.626;7.530;2024-01-16T06:16:49;2.00;99.90
13203;DHT22;6666;51.626;7.530;2024-01-16T06:19:18;1.90;99.90
13203;DHT22;6666;51.626;7.530;2024-01-16T06:21:46;1.90;99.90
13203;DHT22;6666;51.626;7.530;2024-01-16T06:24:14;1.90;99.90
13203;DHT22;6666;51.626;7.530;2024-01-16T06:26:44;1.90;99.90
13203;DHT22;6666;51.626;7.530;2024-01-16T06:29:12;1.90;99.90
13203;DHT22;6666;51.626;7.530;2024-01-16T06:31:54;2.00;99.90
13203;DHT22;6666;51.626;7.530;2024-01-16T06:34:22;1.90;99.90
13203;DHT22;6666;51.626;7.530;2024-01-16T06:36:51;1.90;99.90
13203;DHT22;6666;51.626;7.530;2024-01-16T06:39:19;1.80;99.90
13203;DHT22;6666;51.626;7.530;2024-01-16T06:41:48;2.00;99.90
13203;DHT22;6666;51.626;7.530;2024-01-16T06:44:16;2.00;99.90
13203;DHT22;6666;51.626;7.530;2024-01-16T06:46:45;2.00;99.90
13203;DHT22;6666;51.626;7.530;2024-01-16T06:49:13;1.90;99.90
13203;DHT22;6666;51.626;7.530;2024-01-16T06:51:41;1.90;99.90
13203;DHT22;6666;51.626;7.530;2024-01-16T06:54:09;1.90;99.90
13203;DHT22;6666;51.626;7.530;2024-01-16T06:56:37;1.90;99.90
13203;DHT22;6666;51.626;7.530;2024-01-16T06:59:07;1.90;99.90
13203;DHT22;6666;51.626;7.530;2024-01-16T07:01:38;1.90;99.90
13203;DHT22;6666;51.626;7.530;2024-01-16T07:04:06;1.90;99.90
13203;DHT22;6666;51.626;7.530;2024-01-16T07:06:34;2.00;99.90
13203;DHT22;6666;51.626;7.530;2024-01-16T07:09:03;1.90;99.90
13203;DHT22;6666;51.626;7.530;2024-01-16T07:11:32;1.90;99.90
13203;DHT22;6666;51.626;7.530;2024-01-16T07:14:00;1.90;99.90
13203;DHT22;6666;51.626;7.530;2024-01-16T07:16:31;1.90;99.90
13203;DHT22;6666;51.626;7.530;2024-01-16T07:18:59;1.90;99.90
13203;DHT22;6666;51.626;7.530;2024-01-16T07:21:28;1.90;99.90
13203;DHT22;6666;51.626;7.530;2024-01-16T07:23:56;2.00;99.90
13203;DHT22;6666;51.626;7.530;2024-01-16T07:26:24;2.00;99.90
13203;DHT22;6666;51.626;7.530;2024-01-16T07:28:52;1.90;99.90
13203;DHT22;6666;51.626;7.530;2024-01-16T07:31:20;1.90;99.90
13203;DHT22;6666;51.626;7.530;2024-01-16T07:33:50;1.90;99.90
13203;DHT22;6666;51.626;7.530;2024-01-16T07:36:18;1.90;99.90
13203;DHT22;6666;51.626;7.530;2024-01-16T07:38:46;1.90;99.90
13203;DHT22;6666;51.626;7.530;2024-01-16T07:41:15;1.90;99.90
13203;DHT22;6666;51.626;7.530;2024-01-16T07:43:43;2.00;99.90
13203;DHT22;6666;51.626;7.530;2024-01-16T07:46:15;1.90;99.90
13203;DHT22;6666;51.626;7.530;2024-01-16T07:48:44;1.90;99.90
13203;DHT22;6666;51.626;7.530;2024-01-16T07:51:14;1.90;99.90
13203;DHT22;6666;51.626;7.530;2024-01-16T07:53:42;1.90;99.90
13203;DHT22;6666;51.626;7.530;2024-01-16T07:56:10;1.90;99.90
13203;DHT22;6666;51.626;7.530;2024-01-16T07:58:39;1.90;99.90
13203;DHT22;6666;51.626;7.530;2024-01-16T08:01:07;1.90;99.90
13203;DHT22;6666;51.626;7.530;2024-01-16T08:03:35;1.90;99.90
13203;DHT22;6666;51.626;7.530;2024-01-16T08:06:04;2.00;99.90
13203;DHT22;6666;51.626;7.530;2024-01-16T08:08:34;2.00;99.90
13203;DHT22;6666;51.626;7.530;2024-01-16T08:11:02;2.00;99.90
13203;DHT22;6666;51.626;7.530;2024-01-16T08:13:31;2.10;99.90
13203;DHT22;6666;51.626;7.530;2024-01-16T08:15:59;2.00;99.90
13203;DHT22;6666;51.626;7.530;2024-01-16T08:18:28;2.00;99.90
13203;DHT22;6666;51.626;7.530;2024-01-16T08:20:56;2.00;99.90
13203;DHT22;6666;51.626;7.530;2024-01-16T08:23:25;2.00;99.90
13203;DHT22;6666;51.626;7.530;2024-01-16T08:25:54;2.00;99.90
13203;DHT22;6666;51.626;7.530;2024-01-16T08:28:22;1.90;99.90
13203;DHT22;6666;51.626;7.530;2024-01-16T08:30:51;1.90;99.90
13203;DHT22;6666;51.626;7.530;2024-01-16T08:33:19;1.90;99.90
13203;DHT22;6666;51.626;7.530;2024-01-16T08:36:00;1.80;99.90
13203;DHT22;6666;51.626;7.530;2024-01-16T08:38:28;1.90;99.90
13203;DHT22;6666;51.626;7.530;2024-01-16T08:40:58;1.90;99.90
13203;DHT22;6666;51.626;7.530;2024-01-16T08:43:26;1.90;99.90
13203;DHT22;6666;51.626;7.530;2024-01-16T08:45:54;1.80;99.90
13203;DHT22;6666;51.626;7.530;2024-01-16T08:48:22;1.80;99.90
13203;DHT22;6666;51.626;7.530;2024-01-16T08:50:51;1.80;99.90
13203;DHT22;6666;51.626;7.530;2024-01-16T08:53:21;1.90;99.90
13203;DHT22;6666;51.626;7.530;2024-01-16T08:55:50;1.80;99.90
13203;DHT22;6666;51.626;7.530;2024-01-16T08:58:20;1.80;99.90
13203;DHT22;6666;51.626;7.530;2024-01-16T09:00:48;1.80;99.90
13203;DHT22;6666;51.626;7.530;2024-01-16T09:03:16;1.90;99.90
13203;DHT22;6666;51.626;7.530;2024-01-16T09:05:45;1.80;99.90
13203;DHT22;6666;51.626;7.530;2024-01-16T09:08:13;1.80;99.90
13203;DHT22;6666;51.626;7.530;2024-01-16T09:10:42;1.90;99.90
13203;DHT22;6666;51.626;7.530;2024-01-16T09:13:10;1.90;99.90
13203;DHT22;6666;51.626;7.530;2024-01-16T09:15:40;1.90;99.90
13203;DHT22;6666;51.626;7.530;2024-01-16T09:18:08;1.90;99.90
13203;DHT22;6666;51.626;7.530;2024-01-16T09:20:36;1.80;99.90
13203;DHT22;6666;51.626;7.530;2024-01-16T09:23:04;1.80;99.90
13203;DHT22;6666;51.626;7.530;2024-01-16T09:25:33;1.80;99.90
13203;DHT22;6666;51.626;7.530;2024-01-16T09:28:02;1.80;99.90
13203;DHT22;6666;51.626;7.530;2024-01-16T09:30:30;1.80;99.90
13203;DHT22;6666;51.626;7.530;2024-01-16T09:33:00;1.90;99.90
13203;DHT22;6666;51.626;7.530;2024-01-16T09:35:31;2.00;99.90
13203;DHT22;6666;51.626;7.530;2024-01-16T09:37:59;1.90;99.90
13203;DHT22;6666;51.626;7.530;2024-01-16T09:40:29;1.80;99.90
13203;DHT22;6666;51.626;7.530;2024-01-16T09:42:57;1.90;99.90
13203;DHT22;6666;51.626;7.530;2024-01-16T09:45:26;1.90;99.90
13203;DHT22;6666;51.626;7.530;2024-01-16T09:47:57;2.00;99.90
13203;DHT22;6666;51.626;7.530;2024-01-16T09:50:28;1.90;99.90
13203;DHT22;6666;51.626;7.530;2024-01-16T09:52:57;1.90;99.90
13203;DHT22;6666;51.626;7.530;2024-01-16T09:55:26;1.90;99.90
13203;DHT22;6666;51.626;7.530;2024-01-16T09:57:55;1.90;99.90
13203;DHT22;6666;51.626;7.530;2024-01-16T10:00:24;1.90;99.90
13203;DHT22;6666;51.626;7.530;2024-01-16T10:02:53;2.00;99.90
13203;DHT22;6666;51.626;7.530;2024-01-16T10:05:26;2.00;99.90
13203;DHT22;6666;51.626;7.530;2024-01-16T10:07:55;2.10;99.90
13203;DHT22;6666;51.626;7.530;2024-01-16T10:10:24;2.20;99.90
13203;DHT22;6666;51.626;7.530;2024-01-16T10:13:13;2.10;99.90
13203;DHT22;6666;51.626;7.530;2024-01-16T10:15:42;2.20;99.90
13203;DHT22;6666;51.626;7.530;2024-01-16T10:18:22;2.30;99.90
13203;DHT22;6666;51.626;7.530;2024-01-16T10:20:51;2.30;99.90
13203;DHT22;6666;51.626;7.530;2024-01-16T10:23:26;2.20;99.90
13203;DHT22;6666;51.626;7.530;2024-01-16T10:26:09;2.40;99.90
13203;DHT22;6666;51.626;7.530;2024-01-16T10:28:39;2.30;99.90
13203;DHT22;6666;51.626;7.530;2024-01-16T10:31:08;2.40;99.90
13203;DHT22;6666;51.626;7.530;2024-01-16T10:33:36;2.40;99.90
13203;DHT22;6666;51.626;7.530;2024-01-16T10:36:10;2.40;99.90
13203;DHT22;6666;51.626;7.530;2024-01-16T10:38:42;2.50;99.90
13203;DHT22;6666;51.626;7.530;2024-01-16T10:41:11;2.40;99.90
13203;DHT22;6666;51.626;7.530;2024-01-16T10:43:41;2.60;99.90
13203;DHT22;6666;51.626;7.530;2024-01-16T10:46:14;2.50;99.90
13203;DHT22;6666;51.626;7.530;2024-01-16T10:48:43;2.60;99.90
13203;DHT22;6666;51.626;7.530;2024-01-16T10:51:14;2.50;99.90
13203;DHT22;6666;51.626;7.530;2024-01-16T10:53:44;2.40;99.90
13203;DHT22;6666;51.626;7.530;2024-01-16T10:56:14;2.50;99.90
13203;DHT22;6666;51.626;7.530;2024-01-16T10:58:45;2.50;99.90
13203;DHT22;6666;51.626;7.530;2024-01-16T11:01:16;2.30;99.90
13203;DHT22;6666;51.626;7.530;2024-01-16T11:03:47;2.50;99.90
13203;DHT22;6666;51.626;7.530;2024-01-16T11:06:17;2.50;99.90
13203;DHT22;6666;51.626;7.530;2024-01-16T11:08:48;2.40;99.90
13203;DHT22;6666;51.626;7.530;2024-01-16T11:11:17;2.40;99.90
13203;DHT22;6666;51.626;7.530;2024-01-16T11:13:46;2.40;99.90
13203;DHT22;6666;51.626;7.530;2024-01-16T11:16:14;2.50;99.90
13203;DHT22;6666;51.626;7.530;2024-01-16T11:18:42;2.50;99.90
13203;DHT22;6666;51.626;7.530;2024-01-16T11:21:12;2.50;99.90
13203;DHT22;6666;51.626;7.530;2024-01-16T11:23:44;2.60;99.90
13203;DHT22;6666;51.626;7.530;2024-01-16T11:26:29;2.70;99.90
13203;DHT22;6666;51.626;7.530;2024-01-16T11:29:00;2.70;99.90
13203;DHT22;6666;51.626;7.530;2024-01-16T11:31:33;2.80;99.90
13203;DHT22;6666;51.626;7.530;2024-01-16T11:34:02;2.90;99.90
13203;DHT22;6666;51.626;7.530;2024-01-16T11:36:51;3.00;99.90
13203;DHT22;6666;51.626;7.530;2024-01-16T11:39:24;3.00;99.90
13203;DHT22;6666;51.626;7.530;2024-01-16T11:41:56;2.90;99.90
13203;DHT22;6666;51.626;7.530;2024-01-16T11:44:41;2.90;99.90
13203;DHT22;6666;51.626;7.530;2024-01-16T11:47:15;2.90;99.90
13203;DHT22;6666;51.626;7.530;2024-01-16T11:49:45;2.90;99.90
13203;DHT22;6666;51.626;7.530;2024-01-16T11:52:13;2.90;99.90
13203;DHT22;6666;51.626;7.530;2024-01-16T11:54:42;3.00;99.90
13203;DHT22;6666;51.626;7.530;2024-01-16T11:57:48;3.00;99.90
13203;DHT22;6666;51.626;7.530;2024-01-16T12:00:21;3.00;99.90
13203;DHT22;6666;51.626;7.530;2024-01-16T12:02:53;3.00;99.90
13203;DHT22;6666;51.626;7.530;2024-01-16T12:05:22;3.10;99.90
13203;DHT22;6666;51.626;7.530;2024-01-16T12:07:52;3.20;99.90
13203;DHT22;6666;51.626;7.530;2024-01-16T12:10:22;3.30;99.90
13203;DHT22;6666;51.626;7.530;2024-01-16T12:12:58;3.40;99.90
13203;DHT22;6666;51.626;7.530;2024-01-16T12:15:31;3.50;99.90
13203;DHT22;6666;51.626;7.530;2024-01-16T12:18:00;3.50;99.90
13203;DHT22;6666;51.626;7.530;2024-01-16T12:20:30;3.40;99.90
13203;DHT22;6666;51.626;7.530;2024-01-16T12:23:01;3.50;99.90
13203;DHT22;6666;51.626;7.530;2024-01-16T12:25:30;3.60;99.90
13203;DHT22;6666;51.626;7.530;2024-01-16T12:28:20;3.70;99.90
13203;DHT22;6666;51.626;7.530;2024-01-16T12:30:59;3.70;99.90
13203;DHT22;6666;51.626;7.530;2024-01-16T12:33:28;3.90;99.90
13203;DHT22;6666;51.626;7.530;2024-01-16T12:36:02;3.90;99.90
13203;DHT22;6666;51.626;7.530;2024-01-16T12:38:31;4.00;99.90
13203;DHT22;6666;51.626;7.530;2024-01-16T12:41:00;4.00;99.90
13203;DHT22;6666;51.626;7.530;2024-01-16T12:43:32;4.00;99.90
13203;DHT22;6666;51.626;7.530;2024-01-16T12:46:00;4.10;99.90
13203;DHT22;6666;51.626;7.530;2024-01-16T12:48:29;3.90;99.90
13203;DHT22;6666;51.626;7.530;2024-01-16T12:50:59;3.70;99.90
13203;DHT22;6666;51.626;7.530;2024-01-16T12:53:29;3.70;99.90
13203;DHT22;6666;51.626;7.530;2024-01-16T12:56:00;3.70;99.90
13203;DHT22;6666;51.626;7.530;2024-01-16T12:58:33;3.80;99.90
13203;DHT22;6666;51.626;7.530;2024-01-16T13:01:24;3.80;99.90
13203;DHT22;6666;51.626;7.530;2024-01-16T13:03:55;3.80;99.90
13203;DHT22;6666;51.626;7.530;2024-01-16T13:06:23;3.90;99.90
13203;DHT22;6666;51.626;7.530;2024-01-16T13:09:04;3.90;99.90
13203;DHT22;6666;51.626;7.530;2024-01-16T13:11:46;3.90;99.90
13203;DHT22;6666;51.626;7.530;2024-01-16T13:14:16;3.70;99.90
13203;DHT22;6666;51.626;7.530;2024-01-16T13:16:44;3.80;99.90
13203;DHT22;6666;51.626;7.530;2024-01-16T13:19:15;3.80;99.90
13203;DHT22;6666;51.626;7.530;2024-01-16T13:21:43;3.80;99.90
13203;DHT22;6666;51.626;7.530;2024-01-16T13:24:12;3.80;99.90
13203;DHT22;6666;51.626;7.530;2024-01-16T13:26:40;3.80;99.90
13203;DHT22;6666;51.626;7.530;2024-01-16T13:29:09;3.70;99.90
13203;DHT22;6666;51.626;7.530;2024-01-16T13:31:38;3.70;99.90
13203;DHT22;6666;51.626;7.530;2024-01-16T13:34:07;3.60;99.90
13203;DHT22;6666;51.626;7.530;2024-01-16T13:36:35;3.60;99.90
13203;DHT22;6666;51.626;7.530;2024-01-16T13:39:06;3.50;99.90
13203;DHT22;6666;51.626;7.530;2024-01-16T13:41:40;3.30;99.90
13203;DHT22;6666;51.626;7.530;2024-01-16T13:44:09;3.30;99.90
13203;DHT22;6666;51.626;7.530;2024-01-16T13:46:39;3.20;99.90
13203;DHT22;6666;51.626;7.530;2024-01-16T13:49:27;3.20;99.90
13203;DHT22;6666;51.626;7.530;2024-01-16T13:51:55;3.20;99.90
13203;DHT22;6666;51.626;7.530;2024-01-16T13:54:23;3.20;99.90
13203;DHT22;6666;51.626;7.530;2024-01-16T13:56:53;3.30;99.90
13203;DHT22;6666;51.626;7.530;2024-01-16T13:59:33;3.30;99.90
13203;DHT22;6666;51.626;7.530;2024-01-16T14:02:03;3.20;99.90
13203;DHT22;6666;51.626;7.530;2024-01-16T14:04:32;3.10;99.90
13203;DHT22;6666;51.626;7.530;2024-01-16T14:07:02;2.90;99.90
13203;DHT22;6666;51.626;7.530;2024-01-16T14:09:40;3.00;99.90
13203;DHT22;6666;51.626;7.530;2024-01-16T14:12:11;3.00;99.90
13203;DHT22;6666;51.626;7.530;2024-01-16T14:14:41;3.00;99.90
13203;DHT22;6666;51.626;7.530;2024-01-16T14:17:11;2.90;99.90
13203;DHT22;6666;51.626;7.530;2024-01-16T14:19:39;2.90;99.90
13203;DHT22;6666;51.626;7.530;2024-01-16T14:22:08;2.70;99.90
13203;DHT22;6666;51.626;7.530;2024-01-16T14:24:36;2.80;99.90
13203;DHT22;6666;51.626;7.530;2024-01-16T14:27:05;2.80;99.90
13203;DHT22;6666;51.626;7.530;2024-01-16T14:29:34;2.70;99.90
13203;DHT22;6666;51.626;7.530;2024-01-16T14:32:04;2.70;99.90
13203;DHT22;6666;51.626;7.530;2024-01-16T14:34:34;2.90;99.90
13203;DHT22;6666;51.626;7.530;2024-01-16T14:37:02;2.90;99.90
13203;DHT22;6666;51.626;7.530;2024-01-16T14:39:30;3.00;99.90
13203;DHT22;6666;51.626;7.530;2024-01-16T14:41:58;3.00;99.90
13203;DHT22;6666;51.626;7.530;2024-01-16T14:44:30;3.00;99.90
13203;DHT22;6666;51.626;7.530;2024-01-16T14:46:58;3.00;99.90
13203;DHT22;6666;51.626;7.530;2024-01-16T14:49:26;2.90;99.90
13203;DHT22;6666;51.626;7.530;2024-01-16T14:52:00;2.90;99.90
13203;DHT22;6666;51.626;7.530;2024-01-16T14:54:28;2.90;99.90
13203;DHT22;6666;51.626;7.530;2024-01-16T14:56:56;2.80;99.90
13203;DHT22;6666;51.626;7.530;2024-01-16T14:59:26;2.90;99.90
13203;DHT22;6666;51.626;7.530;2024-01-16T15:01:54;2.80;99.90
13203;DHT22;6666;51.626;7.530;2024-01-16T15:04:22;2.70;99.90
13203;DHT22;6666;51.626;7.530;2024-01-16T15:06:50;2.70;99.90
13203;DHT22;6666;51.626;7.530;2024-01-16T15:09:21;2.60;99.90
13203;DHT22;6666;51.626;7.530;2024-01-16T15:11:49;2.60;99.90
13203;DHT22;6666;51.626;7.530;2024-01-16T15:14:17;2.60;99.90
13203;DHT22;6666;51.626;7.530;2024-01-16T15:16:45;2.60;99.90
13203;DHT22;6666;51.626;7.530;2024-01-16T15:19:13;2.60;99.90
13203;DHT22;6666;51.626;7.530;2024-01-16T15:21:42;2.50;99.90
13203;DHT22;6666;51.626;7.530;2024-01-16T15:24:10;2.40;99.90
13203;DHT22;6666;51.626;7.530;2024-01-16T15:26:44;2.40;99.90
13203;DHT22;6666;51.626;7.530;2024-01-16T15:29:13;2.40;99.90
13203;DHT22;6666;51.626;7.530;2024-01-16T15:31:41;2.30;99.90
13203;DHT22;6666;51.626;7.530;2024-01-16T15:34:09;2.30;99.90
13203;DHT22;6666;51.626;7.530;2024-01-16T15:36:42;2.30;99.90
13203;DHT22;6666;51.626;7.530;2024-01-16T15:39:11;2.20;99.90
13203;DHT22;6666;51.626;7.530;2024-01-16T15:41:44;2.10;99.90
13203;DHT22;6666;51.626;7.530;2024-01-16T15:44:12;2.00;99.90
13203;DHT22;6666;51.626;7.530;2024-01-16T15:46:54;1.90;99.90
13203;DHT22;6666;51.626;7.530;2024-01-16T15:49:22;1.90;99.90
13203;DHT22;6666;51.626;7.530;2024-01-16T15:51:50;1.90;99.90
13203;DHT22;6666;51.626;7.530;2024-01-16T15:54:18;1.80;99.90
13203;DHT22;6666;51.626;7.530;2024-01-16T15:56:48;1.80;99.90
13203;DHT22;6666;51.626;7.530;2024-01-16T15:59:18;1.70;99.90
13203;DHT22;6666;51.626;7.530;2024-01-16T16:01:46;1.70;99.90
13203;DHT22;6666;51.626;7.530;2024-01-16T16:04:15;1.70;99.90
13203;DHT22;6666;51.626;7.530;2024-01-16T16:06:44;1.70;99.90
13203;DHT22;6666;51.626;7.530;2024-01-16T16:09:12;1.60;99.90
13203;DHT22;6666;51.626;7.530;2024-01-16T16:11:41;1.70;99.90
13203;DHT22;6666;51.626;7.530;2024-01-16T16:14:12;1.60;99.90
13203;DHT22;6666;51.626;7.530;2024-01-16T16:16:41;1.60;99.90
13203;DHT22;6666;51.626;7.530;2024-01-16T16:19:10;1.50;99.90